sensor_id;sensor_type;location;lat;lon;timestamp;pressure;altitude;pressure_sealevel;temperature;humidity
15314;BME280;7757;52.626;4.746;2022-12-24T00:00:36;100215.25;;;16.67;62.60
15314;BME280;7757;52.626;4.746;2022-12-24T00:03:03;100222.78;;;16.65;63.20
15314;BME280;7757;52.626;4.746;2022-12-24T00:05:31;100225.47;;;16.65;63.00
15314;BME280;7757;52.626;4.746;2022-12-24T00:07:57;100236.03;;;16.66;63.04
15314;BME280;7757;52.626;4.746;2022-12-24T00:10:24;100237.66;;;16.67;62.39
15314;BME280;7757;52.626;4.746;2022-12-24T00:12:51;100241.41;;;16.66;63.26
15314;BME280;7757;52.626;4.746;2022-12-24T00:15:17;100240.84;;;16.64;63.14
15314;BME280;7757;52.626;4.746;2022-12-24T00:17:44;100247.28;;;16.63;63.13
15314;BME280;7757;52.626;4.746;2022-12-24T00:20:11;100253.53;;;16.64;63.13
15314;BME280;7757;52.626;4.746;2022-12-24T00:22:39;100255.19;;;16.65;63.12
15314;BME280;7757;52.626;4.746;2022-12-24T00:25:06;100259.97;;;16.63;63.13
15314;BME280;7757;52.626;4.746;2022-12-24T00:27:32;100255.19;;;16.65;63.21
15314;BME280;7757;52.626;4.746;2022-12-24T00:29:59;100262.69;;;16.63;62.61
15314;BME280;7757;52.626;4.746;2022-12-24T00:32:26;100266.44;;;16.62;62.47
15314;BME280;7757;52.626;4.746;2022-12-24T00:34:52;100268.91;;;16.63;63.14
15314;BME280;7757;52.626;4.746;2022-12-24T00:37:19;100272.66;;;16.62;62.45
15314;BME280;7757;52.626;4.746;2022-12-24T00:39:47;100275.34;;;16.62;62.60
15314;BME280;7757;52.626;4.746;2022-12-24T00:42:13;100277.00;;;16.63;63.21
15314;BME280;7757;52.626;4.746;2022-12-24T00:44:40;100272.34;;;16.59;62.49
15314;BME280;7757;52.626;4.746;2022-12-24T00:47:07;100280.75;;;16.62;63.11
15314;BME280;7757;52.626;4.746;2022-12-24T00:49:33;100281.81;;;16.61;62.91
15314;BME280;7757;52.626;4.746;2022-12-24T00:52:00;100287.22;;;16.61;63.19
15314;BME280;7757;52.626;4.746;2022-12-24T00:54:27;100283.13;;;16.59;62.35
15314;BME280;7757;52.626;4.746;2022-12-24T00:56:56;100297.78;;;16.63;62.64
15314;BME280;7757;52.626;4.746;2022-12-24T00:59:22;100301.56;;;16.62;62.57
15314;BME280;7757;52.626;4.746;2022-12-24T01:01:49;100300.38;;;16.58;63.44
15314;BME280;7757;52.626;4.746;2022-12-24T01:04:15;100303.44;;;16.61;62.26
15314;BME280;7757;52.626;4.746;2022-12-24T01:07:00;100310.13;;;16.59;62.53
15314;BME280;7757;52.626;4.746;2022-12-24T01:09:26;100306.59;;;16.58;62.64
15314;BME280;7757;52.626;4.746;2022-12-24T01:11:53;100320.69;;;16.60;63.08
15314;BME280;7757;52.626;4.746;2022-12-24T01:14:21;100320.69;;;16.60;62.55
15314;BME280;7757;52.626;4.746;2022-12-24T01:16:47;100331.94;;;16.57;62.89
15314;BME280;7757;52.626;4.746;2022-12-24T01:19:14;100325.72;;;16.57;62.54
15314;BME280;7757;52.626;4.746;2022-12-24T01:21:41;100335.94;;;16.55;63.07
15314;BME280;7757;52.626;4.746;2022-12-24T01:24:10;100338.84;;;16.53;62.67
15314;BME280;7757;52.626;4.746;2022-12-24T01:26:39;100344.63;;;16.57;62.75
15314;BME280;7757;52.626;4.746;2022-12-24T01:29:06;100348.16;;;16.57;62.60
15314;BME280;7757;52.626;4.746;2022-12-24T01:31:33;100348.16;;;16.57;62.83
15314;BME280;7757;52.626;4.746;2022-12-24T01:34:00;100350.03;;;16.57;63.03
15314;BME280;7757;52.626;4.746;2022-12-24T01:36:27;100358.38;;;16.55;63.16
15314;BME280;7757;52.626;4.746;2022-12-24T01:38:53;100357.28;;;16.56;62.35
15314;BME280;7757;52.626;4.746;2022-12-24T01:41:21;100362.94;;;16.55;63.01
15314;BME280;7757;52.626;4.746;2022-12-24T01:44:19;100358.59;;;16.54;62.21
15314;BME280;7757;52.626;4.746;2022-12-24T01:46:49;100363.78;;;16.55;62.59
15314;BME280;7757;52.626;4.746;2022-12-24T01:49:17;100359.41;;;16.54;63.38
15314;BME280;7757;52.626;4.746;2022-12-24T01:51:46;100365.84;;;16.53;62.85
15314;BME280;7757;52.626;4.746;2022-12-24T01:54:17;100369.38;;;16.54;62.87
15314;BME280;7757;52.626;4.746;2022-12-24T01:56:48;100372.53;;;16.51;62.85
15314;BME280;7757;52.626;4.746;2022-12-24T01:59:17;100371.47;;;16.52;62.83
15314;BME280;7757;52.626;4.746;2022-12-24T02:01:48;100373.34;;;16.51;62.64
15314;BME280;7757;52.626;4.746;2022-12-24T02:04:22;100383.09;;;16.52;62.52
15314;BME280;7757;52.626;4.746;2022-12-24T02:06:50;100390.59;;;16.50;62.67
15314;BME280;7757;52.626;4.746;2022-12-24T02:09:16;100385.44;;;16.49;62.51
15314;BME280;7757;52.626;4.746;2022-12-24T02:11:43;100388.16;;;16.49;63.20
15314;BME280;7757;52.626;4.746;2022-12-24T02:14:10;100389.81;;;16.50;62.56
15314;BME280;7757;52.626;4.746;2022-12-24T02:16:44;100392.16;;;16.46;63.29
15314;BME280;7757;52.626;4.746;2022-12-24T02:19:33;100397.75;;;16.45;62.78
15314;BME280;7757;52.626;4.746;2022-12-24T02:22:09;100413.28;;;16.49;63.25
15314;BME280;7757;52.626;4.746;2022-12-24T02:27:53;100416.66;;;16.45;63.26
15314;BME280;7757;52.626;4.746;2022-12-24T02:30:23;100408.34;;;16.46;63.00
15314;BME280;7757;52.626;4.746;2022-12-24T02:35:46;100411.25;;;16.45;63.21
15314;BME280;7757;52.626;4.746;2022-12-24T02:38:21;100427.94;;;16.42;62.59
15314;BME280;7757;52.626;4.746;2022-12-24T02:40:51;100439.31;;;16.44;63.39
15314;BME280;7757;52.626;4.746;2022-12-24T02:43:21;100438.50;;;16.43;63.19
15314;BME280;7757;52.626;4.746;2022-12-24T02:45:54;100437.91;;;16.41;63.31
15314;BME280;7757;52.626;4.746;2022-12-24T02:48:22;100446.81;;;16.42;63.31
15314;BME280;7757;52.626;4.746;2022-12-24T02:50:58;100446.81;;;16.42;63.49
15314;BME280;7757;52.626;4.746;2022-12-24T02:53:26;100446.25;;;16.40;62.72
15314;BME280;7757;52.626;4.746;2022-12-24T02:58:47;100463.47;;;16.39;62.83
15314;BME280;7757;52.626;4.746;2022-12-24T03:01:29;100457.28;;;16.38;62.65
15314;BME280;7757;52.626;4.746;2022-12-24T03:04:07;100453.97;;;16.36;62.77
15314;BME280;7757;52.626;4.746;2022-12-24T03:06:43;100457.75;;;16.35;63.37
15314;BME280;7757;52.626;4.746;2022-12-24T03:09:17;100471.00;;;16.37;63.05
15314;BME280;7757;52.626;4.746;2022-12-24T03:11:57;100465.84;;;16.35;63.26
15314;BME280;7757;52.626;4.746;2022-12-24T03:14:26;100468.53;;;16.35;63.34
15314;BME280;7757;52.626;4.746;2022-12-24T03:16:55;100471.25;;;16.35;63.42
15314;BME280;7757;52.626;4.746;2022-12-24T03:19:23;100469.59;;;16.34;63.48
15314;BME280;7757;52.626;4.746;2022-12-24T03:21:51;100476.63;;;16.35;62.81
15314;BME280;7757;52.626;4.746;2022-12-24T03:24:22;100475.81;;;16.35;63.32
15314;BME280;7757;52.626;4.746;2022-12-24T03:26:49;100470.88;;;16.32;63.20
15314;BME280;7757;52.626;4.746;2022-12-24T03:29:17;100460.31;;;16.30;62.83
15314;BME280;7757;52.626;4.746;2022-12-24T03:31:45;100472.88;;;16.36;63.04
15314;BME280;7757;52.626;4.746;2022-12-24T03:34:14;100467.94;;;16.33;63.19
15314;BME280;7757;52.626;4.746;2022-12-24T03:36:41;100478.97;;;16.32;63.48
15314;BME280;7757;52.626;4.746;2022-12-24T03:39:09;100468.41;;;16.30;63.71
15314;BME280;7757;52.626;4.746;2022-12-24T03:41:36;100472.16;;;16.29;63.07
15314;BME280;7757;52.626;4.746;2022-12-24T03:44:04;100475.44;;;16.31;63.01
15314;BME280;7757;52.626;4.746;2022-12-24T03:46:30;100479.19;;;16.30;63.43
15314;BME280;7757;52.626;4.746;2022-12-24T03:48:57;100475.09;;;16.28;63.52
15314;BME280;7757;52.626;4.746;2022-12-24T03:51:25;100481.44;;;16.33;63.33
15314;BME280;7757;52.626;4.746;2022-12-24T03:53:53;100483.75;;;16.30;63.58
15314;BME280;7757;52.626;4.746;2022-12-24T03:56:20;100483.19;;;16.28;62.84
15314;BME280;7757;52.626;4.746;2022-12-24T03:58:47;100482.34;;;16.27;63.58
15314;BME280;7757;52.626;4.746;2022-12-24T04:01:14;100482.13;;;16.29;63.18
15314;BME280;7757;52.626;4.746;2022-12-24T04:03:41;100482.59;;;16.26;62.86
15314;BME280;7757;52.626;4.746;2022-12-24T04:06:09;100485.28;;;16.26;62.96
15314;BME280;7757;52.626;4.746;2022-12-24T04:08:38;100483.19;;;16.28;63.29
15314;BME280;7757;52.626;4.746;2022-12-24T04:11:08;100489.66;;;16.27;63.50
15314;BME280;7757;52.626;4.746;2022-12-24T04:13:35;100493.97;;;16.28;63.18
15314;BME280;7757;52.626;4.746;2022-12-24T04:16:05;100493.97;;;16.28;63.40
15314;BME280;7757;52.626;4.746;2022-12-24T04:18:32;100493.16;;;16.27;63.07
15314;BME280;7757;52.626;4.746;2022-12-24T04:20:59;100492.34;;;16.27;63.41
15314;BME280;7757;52.626;4.746;2022-12-24T04:23:26;100485.50;;;16.24;62.90
15314;BME280;7757;52.626;4.746;2022-12-24T04:25:57;100502.78;;;16.23;63.17
15314;BME280;7757;52.626;4.746;2022-12-24T04:28:24;100513.31;;;16.25;63.50
15314;BME280;7757;52.626;4.746;2022-12-24T04:30:51;100522.03;;;16.27;62.82
15314;BME280;7757;52.626;4.746;2022-12-24T04:33:17;100515.19;;;16.24;63.57
15314;BME280;7757;52.626;4.746;2022-12-24T04:35:44;100514.41;;;16.24;63.01
15314;BME280;7757;52.626;4.746;2022-12-24T04:38:10;100514.41;;;16.24;63.91
15314;BME280;7757;52.626;4.746;2022-12-24T04:40:37;100514.63;;;16.22;63.40
15314;BME280;7757;52.626;4.746;2022-12-24T04:43:05;100516.47;;;16.22;63.39
15314;BME280;7757;52.626;4.746;2022-12-24T04:45:31;100518.97;;;16.23;63.53
15314;BME280;7757;52.626;4.746;2022-12-24T04:47:58;100522.72;;;16.22;63.35
15314;BME280;7757;52.626;4.746;2022-12-24T04:50:25;100523.53;;;16.23;63.72
15314;BME280;7757;52.626;4.746;2022-12-24T04:52:51;100521.66;;;16.23;63.49
15314;BME280;7757;52.626;4.746;2022-12-24T04:55:18;100526.44;;;16.21;62.96
15314;BME280;7757;52.626;4.746;2022-12-24T04:57:45;100524.56;;;16.22;63.50
15314;BME280;7757;52.626;4.746;2022-12-24T05:00:13;100528.34;;;16.21;63.38
15314;BME280;7757;52.626;4.746;2022-12-24T05:02:40;100534.78;;;16.19;62.91
15314;BME280;7757;52.626;4.746;2022-12-24T05:05:07;100536.91;;;16.17;63.56
15314;BME280;7757;52.626;4.746;2022-12-24T05:07:34;100537.50;;;16.19;63.31
15314;BME280;7757;52.626;4.746;2022-12-24T05:10:00;100538.06;;;16.22;63.71
15314;BME280;7757;52.626;4.746;2022-12-24T05:12:27;100541.00;;;16.20;63.30
15314;BME280;7757;52.626;4.746;2022-12-24T05:14:54;100536.66;;;16.19;62.96
15314;BME280;7757;52.626;4.746;2022-12-24T05:17:22;100541.22;;;16.18;63.67
15314;BME280;7757;52.626;4.746;2022-12-24T05:19:49;100531.25;;;16.19;63.35
15314;BME280;7757;52.626;4.746;2022-12-24T05:22:15;100542.28;;;16.17;63.00
15314;BME280;7757;52.626;4.746;2022-12-24T05:24:59;100544.16;;;16.17;63.02
15314;BME280;7757;52.626;4.746;2022-12-24T05:27:44;100554.13;;;16.16;63.86
15314;BME280;7757;52.626;4.746;2022-12-24T05:30:11;100549.78;;;16.15;63.45
15314;BME280;7757;52.626;4.746;2022-12-24T05:32:39;100552.03;;;16.18;63.14
15314;BME280;7757;52.626;4.746;2022-12-24T05:35:06;100554.34;;;16.15;62.84
15314;BME280;7757;52.626;4.746;2022-12-24T05:37:33;100559.28;;;16.18;63.47
15314;BME280;7757;52.626;4.746;2022-12-24T05:40:00;100556.59;;;16.18;63.35
15314;BME280;7757;52.626;4.746;2022-12-24T05:42:26;100554.97;;;16.17;63.67
15314;BME280;7757;52.626;4.746;2022-12-24T05:44:53;100550.59;;;16.16;63.40
15314;BME280;7757;52.626;4.746;2022-12-24T05:47:19;100552.03;;;16.18;63.55
15314;BME280;7757;52.626;4.746;2022-12-24T05:49:47;100557.88;;;16.15;63.16
15314;BME280;7757;52.626;4.746;2022-12-24T05:52:14;100560.34;;;16.17;62.91
15314;BME280;7757;52.626;4.746;2022-12-24T05:54:40;100566.78;;;16.16;63.84
15314;BME280;7757;52.626;4.746;2022-12-24T05:57:07;100567.25;;;16.13;63.29
15314;BME280;7757;52.626;4.746;2022-12-24T05:59:33;100571.38;;;16.15;63.55
15314;BME280;7757;52.626;4.746;2022-12-24T06:02:00;100573.47;;;16.13;63.07
15314;BME280;7757;52.626;4.746;2022-12-24T06:04:27;100572.91;;;16.11;63.28
15314;BME280;7757;52.626;4.746;2022-12-24T06:06:55;100572.44;;;16.14;63.49
15314;BME280;7757;52.626;4.746;2022-12-24T06:09:21;100580.28;;;16.16;63.51
15314;BME280;7757;52.626;4.746;2022-12-24T06:11:48;100578.03;;;16.13;63.64
15314;BME280;7757;52.626;4.746;2022-12-24T06:14:15;100584.03;;;16.15;63.14
15314;BME280;7757;52.626;4.746;2022-12-24T06:16:41;100583.22;;;16.14;62.96
15314;BME280;7757;52.626;4.746;2022-12-24T06:19:08;100584.28;;;16.13;63.83
15314;BME280;7757;52.626;4.746;2022-12-24T06:21:35;100601.66;;;16.17;62.87
15314;BME280;7757;52.626;4.746;2022-12-24T06:24:03;100597.75;;;16.13;63.11
15314;BME280;7757;52.626;4.746;2022-12-24T06:26:30;100599.03;;;16.11;63.52
15314;BME280;7757;52.626;4.746;2022-12-24T06:28:56;100597.75;;;16.13;63.58
15314;BME280;7757;52.626;4.746;2022-12-24T06:31:23;100602.56;;;16.11;63.45
15314;BME280;7757;52.626;4.746;2022-12-24T06:33:50;100598.81;;;16.12;63.08
15314;BME280;7757;52.626;4.746;2022-12-24T06:36:19;100600.66;;;16.12;63.48
15314;BME280;7757;52.626;4.746;2022-12-24T06:38:47;100602.13;;;16.14;62.84
15314;BME280;7757;52.626;4.746;2022-12-24T06:41:15;100604.19;;;16.12;63.50
15314;BME280;7757;52.626;4.746;2022-12-24T06:43:43;100605.84;;;16.13;63.21
15314;BME280;7757;52.626;4.746;2022-12-24T06:46:11;100608.75;;;16.12;63.13
15314;BME280;7757;52.626;4.746;2022-12-24T06:48:37;100611.47;;;16.12;63.12
15314;BME280;7757;52.626;4.746;2022-12-24T06:51:04;100607.97;;;16.11;62.87
15314;BME280;7757;52.626;4.746;2022-12-24T06:53:31;100601.75;;;16.11;63.87
15314;BME280;7757;52.626;4.746;2022-12-24T06:56:01;100605.03;;;16.13;63.66
15314;BME280;7757;52.626;4.746;2022-12-24T06:58:29;100609.59;;;16.12;63.30
15314;BME280;7757;52.626;4.746;2022-12-24T07:00:56;100611.00;;;16.15;63.32
15314;BME280;7757;52.626;4.746;2022-12-24T07:03:23;100610.66;;;16.11;63.30
15314;BME280;7757;52.626;4.746;2022-12-24T07:05:50;100613.13;;;16.13;63.32
15314;BME280;7757;52.626;4.746;2022-12-24T07:08:16;100618.50;;;16.13;62.88
15314;BME280;7757;52.626;4.746;2022-12-24T07:10:43;100608.75;;;16.12;63.34
15314;BME280;7757;52.626;4.746;2022-12-24T07:13:09;100629.56;;;16.11;63.55
15314;BME280;7757;52.626;4.746;2022-12-24T07:15:37;100632.84;;;16.13;63.57
15314;BME280;7757;52.626;4.746;2022-12-24T07:18:04;100643.03;;;16.11;62.98
15314;BME280;7757;52.626;4.746;2022-12-24T07:20:31;100647.38;;;16.12;63.15
15314;BME280;7757;52.626;4.746;2022-12-24T07:22:57;100642.78;;;16.13;63.11
15314;BME280;7757;52.626;4.746;2022-12-24T07:25:24;100650.06;;;16.12;63.47
15314;BME280;7757;52.626;4.746;2022-12-24T07:27:51;100646.31;;;16.13;63.19
15314;BME280;7757;52.626;4.746;2022-12-24T07:30:17;100645.28;;;16.14;63.17
15314;BME280;7757;52.626;4.746;2022-12-24T07:32:45;100647.38;;;16.12;63.36
15314;BME280;7757;52.626;4.746;2022-12-24T07:35:12;100658.78;;;16.14;63.69
15314;BME280;7757;52.626;4.746;2022-12-24T07:37:39;100668.88;;;16.19;63.94
15314;BME280;7757;52.626;4.746;2022-12-24T07:40:06;100667.69;;;16.45;65.06
15314;BME280;7757;52.626;4.746;2022-12-24T07:42:34;100678.81;;;16.55;65.32
15314;BME280;7757;52.626;4.746;2022-12-24T07:45:00;100684.00;;;16.38;65.24
15314;BME280;7757;52.626;4.746;2022-12-24T07:47:27;100678.31;;;16.28;64.94
15314;BME280;7757;52.626;4.746;2022-12-24T07:49:55;100691.44;;;16.25;65.15
15314;BME280;7757;52.626;4.746;2022-12-24T07:52:21;100696.81;;;16.25;64.83
15314;BME280;7757;52.626;4.746;2022-12-24T07:54:49;100691.88;;;16.22;64.85
15314;BME280;7757;52.626;4.746;2022-12-24T07:57:15;100703.94;;;16.19;64.57
15314;BME280;7757;52.626;4.746;2022-12-24T07:59:42;100704.19;;;16.17;64.76
15314;BME280;7757;52.626;4.746;2022-12-24T08:02:09;100705.44;;;16.15;64.62
15314;BME280;7757;52.626;4.746;2022-12-24T08:04:36;100704.41;;;16.16;64.62
15314;BME280;7757;52.626;4.746;2022-12-24T08:07:05;100724.13;;;16.16;64.18
15314;BME280;7757;52.626;4.746;2022-12-24T08:09:33;100726.22;;;16.14;64.84
15314;BME280;7757;52.626;4.746;2022-12-24T08:11:59;100732.44;;;16.15;64.63
15314;BME280;7757;52.626;4.746;2022-12-24T08:14:27;100727.03;;;16.15;63.78
15314;BME280;7757;52.626;4.746;2022-12-24T08:16:54;100737.38;;;16.18;63.84
15314;BME280;7757;52.626;4.746;2022-12-24T08:19:21;100733.25;;;16.15;64.36
15314;BME280;7757;52.626;4.746;2022-12-24T08:21:47;100744.03;;;16.15;63.50
15314;BME280;7757;52.626;4.746;2022-12-24T08:24:15;100751.31;;;16.15;63.87
15314;BME280;7757;52.626;4.746;2022-12-24T08:26:42;100758.38;;;16.16;63.81
15314;BME280;7757;52.626;4.746;2022-12-24T08:29:08;100754.00;;;16.15;64.52
15314;BME280;7757;52.626;4.746;2022-12-24T08:31:36;100755.28;;;16.12;63.40
15314;BME280;7757;52.626;4.746;2022-12-24T08:34:03;100764.00;;;16.14;63.92
15314;BME280;7757;52.626;4.746;2022-12-24T08:36:29;100763.38;;;16.12;63.77
15314;BME280;7757;52.626;4.746;2022-12-24T08:38:56;100766.91;;;16.13;64.08
15314;BME280;7757;52.626;4.746;2022-12-24T08:41:24;100783.09;;;16.13;64.08
15314;BME280;7757;52.626;4.746;2022-12-24T08:43:50;100784.97;;;16.12;63.40
15314;BME280;7757;52.626;4.746;2022-12-24T08:46:17;100790.00;;;16.09;64.27
15314;BME280;7757;52.626;4.746;2022-12-24T08:48:44;100788.94;;;16.10;64.51
15314;BME280;7757;52.626;4.746;2022-12-24T08:51:11;100788.56;;;16.06;64.42
15314;BME280;7757;52.626;4.746;2022-12-24T08:53:38;100796.44;;;16.08;63.85
15314;BME280;7757;52.626;4.746;2022-12-24T08:56:06;100797.88;;;16.10;63.70
15314;BME280;7757;52.626;4.746;2022-12-24T08:58:35;100798.91;;;16.09;64.19
15314;BME280;7757;52.626;4.746;2022-12-24T09:01:09;100801.41;;;16.11;63.95
15314;BME280;7757;52.626;4.746;2022-12-24T09:03:36;100808.66;;;16.10;63.39
15314;BME280;7757;52.626;4.746;2022-12-24T09:06:03;100802.88;;;16.07;63.87
15314;BME280;7757;52.626;4.746;2022-12-24T09:08:30;100813.47;;;16.08;63.64
15314;BME280;7757;52.626;4.746;2022-12-24T09:11:02;100828.81;;;16.08;63.60
15314;BME280;7757;52.626;4.746;2022-12-24T09:13:28;100821.56;;;16.08;64.00
15314;BME280;7757;52.626;4.746;2022-12-24T09:15:56;100825.09;;;16.09;64.17
15314;BME280;7757;52.626;4.746;2022-12-24T09:18:24;100829.66;;;16.08;63.71
15314;BME280;7757;52.626;4.746;2022-12-24T09:20:50;100833.19;;;16.09;63.92
15314;BME280;7757;52.626;4.746;2022-12-24T09:23:17;100826.94;;;16.08;63.50
15314;BME280;7757;52.626;4.746;2022-12-24T09:25:43;100837.50;;;16.10;63.67
15314;BME280;7757;52.626;4.746;2022-12-24T09:28:10;100841.19;;;16.15;63.63
15314;BME280;7757;52.626;4.746;2022-12-24T09:30:36;100844.13;;;16.14;63.03
15314;BME280;7757;52.626;4.746;2022-12-24T09:33:04;100846.97;;;16.19;63.53
15314;BME280;7757;52.626;4.746;2022-12-24T09:35:31;100852.06;;;16.27;63.01
15314;BME280;7757;52.626;4.746;2022-12-24T09:37:58;100859.53;;;16.32;63.29
15314;BME280;7757;52.626;4.746;2022-12-24T09:40:34;100856.38;;;16.35;63.09
15314;BME280;7757;52.626;4.746;2022-12-24T09:43:05;100857.56;;;16.39;63.43
15314;BME280;7757;52.626;4.746;2022-12-24T09:45:37;100862.50;;;16.42;62.99
15314;BME280;7757;52.626;4.746;2022-12-24T09:48:12;100861.47;;;16.43;62.89
15314;BME280;7757;52.626;4.746;2022-12-24T09:50:45;100871.81;;;16.46;62.31
15314;BME280;7757;52.626;4.746;2022-12-24T09:53:18;100866.81;;;16.49;62.83
15314;BME280;7757;52.626;4.746;2022-12-24T09:55:48;100862.84;;;16.52;62.63
15314;BME280;7757;52.626;4.746;2022-12-24T09:58:19;100871.75;;;16.52;62.48
15314;BME280;7757;52.626;4.746;2022-12-24T10:00:48;100870.78;;;16.47;62.66
15314;BME280;7757;52.626;4.746;2022-12-24T10:03:17;100888.16;;;16.51;62.24
15314;BME280;7757;52.626;4.746;2022-12-24T10:05:49;100878.25;;;16.45;61.93
15314;BME280;7757;52.626;4.746;2022-12-24T10:08:24;100876.09;;;16.53;62.06
15314;BME280;7757;52.626;4.746;2022-12-24T10:10:54;100878.78;;;16.53;61.91
15314;BME280;7757;52.626;4.746;2022-12-24T10:13:36;100889.19;;;16.56;61.80
15314;BME280;7757;52.626;4.746;2022-12-24T10:16:13;100888.25;;;16.44;61.82
15314;BME280;7757;52.626;4.746;2022-12-24T10:18:51;100900.63;;;16.52;62.55
15314;BME280;7757;52.626;4.746;2022-12-24T10:21:29;100900.25;;;16.48;61.94
15314;BME280;7757;52.626;4.746;2022-12-24T10:24:05;100906.00;;;16.58;62.07
15314;BME280;7757;52.626;4.746;2022-12-24T10:26:38;100893.53;;;16.57;61.84
15314;BME280;7757;52.626;4.746;2022-12-24T10:29:13;100890.00;;;16.57;62.47
15314;BME280;7757;52.626;4.746;2022-12-24T10:31:48;100886.28;;;16.58;62.43
15314;BME280;7757;52.626;4.746;2022-12-24T10:34:18;100878.56;;;16.61;62.20
15314;BME280;7757;52.626;4.746;2022-12-24T10:36:46;100883.34;;;16.59;62.05
15314;BME280;7757;52.626;4.746;2022-12-24T10:39:16;100884.53;;;16.63;62.49
15314;BME280;7757;52.626;4.746;2022-12-24T10:41:44;100886.41;;;16.63;62.44
15314;BME280;7757;52.626;4.746;2022-12-24T10:44:17;100878.69;;;16.66;62.19
15314;BME280;7757;52.626;4.746;2022-12-24T10:46:45;100891.75;;;16.69;62.54
15314;BME280;7757;52.626;4.746;2022-12-24T10:49:14;100881.19;;;16.68;62.39
15314;BME280;7757;52.626;4.746;2022-12-24T10:51:46;100899.63;;;16.71;62.73
15314;BME280;7757;52.626;4.746;2022-12-24T10:54:15;100897.75;;;16.71;62.41
15314;BME280;7757;52.626;4.746;2022-12-24T10:56:45;100898.81;;;16.70;62.85
15314;BME280;7757;52.626;4.746;2022-12-24T10:59:26;100909.81;;;16.69;62.31
15314;BME280;7757;52.626;4.746;2022-12-24T11:01:54;100897.59;;;16.66;62.45
15314;BME280;7757;52.626;4.746;2022-12-24T11:04:23;100908.84;;;16.63;62.57
15314;BME280;7757;52.626;4.746;2022-12-24T11:06:56;100921.47;;;16.69;62.75
15314;BME280;7757;52.626;4.746;2022-12-24T11:09:26;100927.44;;;16.71;62.90
15314;BME280;7757;52.626;4.746;2022-12-24T11:11:54;100910.91;;;16.68;63.06
15314;BME280;7757;52.626;4.746;2022-12-24T11:14:21;100931.88;;;16.66;62.45
15314;BME280;7757;52.626;4.746;2022-12-24T11:16:50;100937.91;;;16.68;62.80
15314;BME280;7757;52.626;4.746;2022-12-24T11:19:28;100939.16;;;16.65;62.74
15314;BME280;7757;52.626;4.746;2022-12-24T11:22:02;100950.19;;;16.64;62.85
15314;BME280;7757;52.626;4.746;2022-12-24T11:24:33;100947.53;;;16.57;62.51
15314;BME280;7757;52.626;4.746;2022-12-24T11:27:22;100955.00;;;16.62;62.34
15314;BME280;7757;52.626;4.746;2022-12-24T11:29:49;100956.69;;;16.56;62.88
15314;BME280;7757;52.626;4.746;2022-12-24T11:32:18;100957.75;;;16.55;62.81
15314;BME280;7757;52.626;4.746;2022-12-24T11:34:45;100954.38;;;16.60;62.87
15314;BME280;7757;52.626;4.746;2022-12-24T11:37:16;100958.28;;;16.64;62.50
15314;BME280;7757;52.626;4.746;2022-12-24T11:39:46;100956.63;;;16.63;62.94
15314;BME280;7757;52.626;4.746;2022-12-24T11:42:30;100953.94;;;16.63;62.71
15314;BME280;7757;52.626;4.746;2022-12-24T11:45:00;100956.41;;;16.64;62.49
15314;BME280;7757;52.626;4.746;2022-12-24T11:47:34;100956.19;;;16.66;62.28
15314;BME280;7757;52.626;4.746;2022-12-24T11:52:45;100954.75;;;16.63;62.26
15314;BME280;7757;52.626;4.746;2022-12-24T11:55:16;100955.78;;;16.62;62.96
15314;BME280;7757;52.626;4.746;2022-12-24T11:57:51;100952.06;;;16.63;63.12
15314;BME280;7757;52.626;4.746;2022-12-24T12:00:19;100959.13;;;16.64;62.41
15314;BME280;7757;52.626;4.746;2022-12-24T12:02:48;100963.69;;;16.64;62.91
15314;BME280;7757;52.626;4.746;2022-12-24T12:05:18;100963.91;;;16.62;62.93
15314;BME280;7757;52.626;4.746;2022-12-24T12:07:50;100974.09;;;16.60;63.16
15314;BME280;7757;52.626;4.746;2022-12-24T12:10:21;100977.25;;;16.57;62.83
15314;BME280;7757;52.626;4.746;2022-12-24T12:12:56;100979.94;;;16.57;63.17
15314;BME280;7757;52.626;4.746;2022-12-24T12:15:25;100984.50;;;16.57;62.97
15314;BME280;7757;52.626;4.746;2022-12-24T12:17:59;100982.25;;;16.54;62.61
15314;BME280;7757;52.626;4.746;2022-12-24T12:20:31;100979.94;;;16.57;62.98
15314;BME280;7757;52.626;4.746;2022-12-24T12:23:06;100987.00;;;16.58;62.46
15314;BME280;7757;52.626;4.746;2022-12-24T12:25:41;100988.66;;;16.59;62.85
15314;BME280;7757;52.626;4.746;2022-12-24T12:28:15;100984.06;;;16.60;62.66
15314;BME280;7757;52.626;4.746;2022-12-24T12:30:44;100983.88;;;16.61;62.61
15314;BME280;7757;52.626;4.746;2022-12-24T12:33:18;100988.38;;;16.67;63.24
15314;BME280;7757;52.626;4.746;2022-12-24T12:35:47;100994.97;;;16.71;63.40
15314;BME280;7757;52.626;4.746;2022-12-24T12:38:20;100996.41;;;16.74;62.75
15314;BME280;7757;52.626;4.746;2022-12-24T12:40:58;100994.78;;;16.73;63.14
15314;BME280;7757;52.626;4.746;2022-12-24T12:43:52;101003.63;;;16.80;63.56
15314;BME280;7757;52.626;4.746;2022-12-24T12:46:30;100991.19;;;16.79;62.90
15314;BME280;7757;52.626;4.746;2022-12-24T12:49:11;100994.47;;;16.81;63.67
15314;BME280;7757;52.626;4.746;2022-12-24T12:51:46;101001.75;;;16.81;63.32
15314;BME280;7757;52.626;4.746;2022-12-24T12:54:35;101005.34;;;16.74;63.57
15314;BME280;7757;52.626;4.746;2022-12-24T12:57:12;101000.38;;;16.71;63.46
15314;BME280;7757;52.626;4.746;2022-12-24T12:59:45;101003.06;;;16.71;62.92
15314;BME280;7757;52.626;4.746;2022-12-24T13:02:21;100998.34;;;16.67;63.13
15314;BME280;7757;52.626;4.746;2022-12-24T13:05:05;101018.09;;;16.67;63.28
15314;BME280;7757;52.626;4.746;2022-12-24T13:07:50;101018.94;;;16.68;63.28
15314;BME280;7757;52.626;4.746;2022-12-24T13:10:43;101027.03;;;16.68;62.67
15314;BME280;7757;52.626;4.746;2022-12-24T13:19:07;101050.84;;;16.71;62.70
15314;BME280;7757;52.626;4.746;2022-12-24T13:21:42;101049.44;;;16.68;63.25
15314;BME280;7757;52.626;4.746;2022-12-24T13:24:15;101045.09;;;16.67;62.92
15314;BME280;7757;52.626;4.746;2022-12-24T13:27:01;101051.34;;;16.68;62.76
15314;BME280;7757;52.626;4.746;2022-12-24T13:29:38;101055.28;;;16.65;62.78